Time;durP1;ratioP1;P1;durP2;ratioP2;P2;SDS_P1;SDS_P2;PMS_P1;PMS_P2;Temp;Humidity;BMP_temperature;BMP_pressure;BME280_temperature;BME280_humidity;BME280_pressure;Samples;Min_cycle;Max_cycle;Signal;HPM_P1;HPM_P2
2021/11/03 00:00:18;;;;;;;19.80;10.55;;;;;;;14.25;100.00;100710.52;1738568;81;21206;-85
2021/11/03 00:02:50;;;;;;;16.27;11.75;;;;;;;14.24;100.00;100713.03;1740393;81;21353;-74
2021/11/03 00:05:23;;;;;;;;;;;;;;;14.26;100.00;100705.23;1704848;81;21419;-80
2021/11/03 00:07:57;;;;;;;20.27;10.60;;;;;;;14.25;100.00;100714.70;1746851;80;20193;-81
2021/11/03 00:10:29;;;;;;;16.70;10.07;;;;;;;14.24;100.00;100715.83;1747788;78;21235;-74
2021/11/03 00:13:02;;;;;;;14.57;9.90;;;;;;;14.22;100.00;100709.70;1759645;80;21439;-80
2021/11/03 00:15:34;;;;;;;17.27;9.98;;;;;;;14.20;100.00;100707.77;1742503;80;21256;-79
2021/11/03 00:18:07;;;;;;;15.72;9.35;;;;;;;14.18;100.00;100709.95;1752578;80;21278;-78
2021/11/03 00:20:40;;;;;;;16.85;9.70;;;;;;;14.17;100.00;100699.91;1746901;79;21260;-82
2021/11/03 00:23:12;;;;;;;17.92;9.75;;;;;;;14.17;100.00;100694.31;1735496;81;21444;-78
2021/11/03 00:25:46;;;;;;;16.42;10.15;;;;;;;14.18;100.00;100699.36;1737281;80;21858;-76
2021/11/03 00:28:21;;;;;;;20.88;10.23;;;;;;;14.17;100.00;100712.47;1731922;81;21353;-78
2021/11/03 00:30:56;;;;;;;16.17;9.80;;;;;;;14.15;100.00;100703.55;1730043;81;21328;-83
2021/11/03 00:33:30;;;;;;;13.50;9.50;;;;;;;14.15;100.00;100703.55;1736767;81;21441;-84
2021/11/03 00:36:02;;;;;;;15.03;8.95;;;;;;;14.19;100.00;100706.06;1742204;80;21422;-80
2021/11/03 00:38:35;;;;;;;;;;;;;;;14.18;100.00;100712.73;1729194;81;21977;-76
2021/11/03 00:41:08;;;;;;;18.40;10.45;;;;;;;14.16;100.00;100708.01;1737267;81;20589;-81
2021/11/03 00:43:41;;;;;;;15.35;9.78;;;;;;;14.14;100.00;100712.20;1729457;81;21336;-78
2021/11/03 00:46:13;;;;;;;14.00;9.05;;;;;;;14.15;100.00;100713.33;1750388;79;21187;-81
2021/11/03 00:48:47;;;;;;;18.48;11.65;;;;;;;14.17;100.00;100716.66;1745145;79;21610;-80
2021/11/03 00:51:20;;;;;;;20.65;11.93;;;;;;;14.17;100.00;100716.66;1763604;79;21189;-80
2021/11/03 00:53:56;;;;;;;16.97;11.33;;;;;;;14.17;100.00;100717.23;1719916;80;21343;-80
2021/11/03 00:56:29;;;;;;;19.75;11.78;;;;;;;14.15;100.00;100710.53;1729497;81;21728;-80
2021/11/03 00:59:02;;;;;;;;;;;;;;;14.15;100.00;100711.92;1748571;80;21417;-81
2021/11/03 01:01:36;;;;;;;22.32;13.55;;;;;;;14.13;100.00;100711.35;1731682;80;20188;-80
2021/11/03 01:04:09;;;;;;;21.15;13.45;;;;;;;14.10;100.00;100705.50;1760473;80;21837;-83
2021/11/03 01:06:42;;;;;;;27.22;14.18;;;;;;;14.13;100.00;100714.14;1752401;80;21777;-81
2021/11/03 01:09:15;;;;;;;;;;;;;;;14.16;100.00;100715.54;1747070;80;21299;-82
2021/11/03 01:11:48;;;;;;;27.17;14.00;;;;;;;14.19;100.00;100716.42;1742754;79;20311;-81
2021/11/03 01:14:21;;;;;;;22.05;12.95;;;;;;;14.18;100.00;100715.53;1742230;81;21335;-82
2021/11/03 01:16:54;;;;;;;25.85;14.10;;;;;;;14.18;100.00;100716.93;1744954;81;21201;-81
2021/11/03 01:19:26;;;;;;;23.42;13.75;;;;;;;14.22;100.00;100725.61;1742305;78;21363;-81
2021/11/03 01:22:00;;;;;;;;;;;;;;;14.27;100.00;100720.02;1749509;80;21802;-73
2021/11/03 01:24:32;;;;;;;24.67;14.93;;;;;;;14.24;100.00;100726.18;1721647;81;20194;-74
2021/11/03 01:27:05;;;;;;;26.90;14.10;;;;;;;14.24;100.00;100726.18;1708220;82;21193;-78
2021/11/03 01:29:38;;;;;;;28.20;15.03;;;;;;;14.25;100.00;100721.68;1739512;80;21170;-79
2021/11/03 01:32:11;;;;;;;30.35;13.95;;;;;;;14.25;100.00;100737.05;1740505;81;21883;-80
2021/11/03 01:34:43;;;;;;;27.60;17.23;;;;;;;14.26;100.00;100742.94;1740068;81;21760;-78
2021/11/03 01:37:16;;;;;;;33.70;17.42;;;;;;;14.27;100.00;100744.60;1736807;81;21737;-78
2021/11/03 01:39:49;;;;;;;25.72;15.60;;;;;;;14.27;100.00;100743.20;1730757;81;21329;-75
2021/11/03 01:42:21;;;;;;;28.17;16.12;;;;;;;14.27;100.00;100743.20;1715700;82;21998;-78
2021/11/03 01:44:54;;;;;;;31.53;16.57;;;;;;;14.26;100.00;100747.67;1715635;81;21376;-73
2021/11/03 01:47:47;;;;;;;28.23;16.62;;;;;;;14.24;100.00;100749.34;1738369;80;21231;-91
2021/11/03 01:50:37;;;;;;;31.57;17.87;;;;;;;14.24;100.00;100749.34;1745412;81;21353;-75
2021/11/03 01:53:25;;;;;;;30.08;18.25;;;;;;;14.26;100.00;100751.86;1724599;80;21356;-83
2021/11/03 01:56:08;;;;;;;31.17;16.42;;;;;;;14.29;100.00;100759.11;1731854;81;21174;-85
2021/11/03 01:58:48;;;;;;;30.68;16.65;;;;;;;14.36;100.00;100761.63;1733026;81;21344;-86
2021/11/03 02:01:21;;;;;;;28.17;16.67;;;;;;;14.37;100.00;100762.71;1733832;81;21349;-89
2021/11/03 02:03:53;;;;;;;28.10;17.20;;;;;;;14.34;100.00;100764.69;1737458;81;21715;-85
2021/11/03 02:06:26;;;;;;;29.75;18.05;;;;;;;14.33;100.00;100764.42;1724216;81;21344;-84
2021/11/03 02:08:59;;;;;;;29.80;18.30;;;;;;;14.32;100.00;100762.75;1735871;81;21158;-87
2021/11/03 02:11:32;;;;;;;28.42;16.75;;;;;;;14.32;100.00;100764.69;1728669;81;21870;-87
2021/11/03 02:14:06;;;;;;;27.90;16.10;;;;;;;14.28;100.00;100770.02;1746353;81;21240;-85
2021/11/03 02:16:43;;;;;;;29.02;15.78;;;;;;;14.26;100.00;100775.05;1734597;81;21403;-79
2021/11/03 02:19:26;;;;;;;33.45;18.67;;;;;;;14.24;100.00;100769.47;1734415;81;21201;-77
2021/11/03 02:22:22;;;;;;;31.80;18.48;;;;;;;14.23;100.00;100774.20;1737241;81;21392;-78
2021/11/03 02:25:10;;;;;;;30.25;17.73;;;;;;;14.25;100.00;100774.75;1732525;81;21197;-82
2021/11/03 02:27:47;;;;;;;28.47;17.35;;;;;;;14.23;100.00;100771.41;1737609;81;21242;-81
2021/11/03 02:30:23;;;;;;;27.85;17.98;;;;;;;14.21;100.00;100781.19;1737160;81;21415;-83
2021/11/03 02:33:03;;;;;;;29.95;18.73;;;;;;;14.22;100.00;100785.66;1734703;81;21324;-82
2021/11/03 02:35:38;;;;;;;34.53;19.98;;;;;;;14.26;100.00;100786.77;1742319;81;21766;-84
2021/11/03 02:38:12;;;;;;;36.10;19.23;;;;;;;14.26;100.00;100786.77;1731738;81;21340;-84
2021/11/03 02:40:55;;;;;;;34.70;19.52;;;;;;;14.25;100.00;100778.94;1744270;81;21346;-81
2021/11/03 02:43:40;;;;;;;31.97;17.73;;;;;;;14.24;100.00;100780.06;1739650;80;21862;-84
2021/11/03 02:46:13;;;;;;;35.25;20.27;;;;;;;14.22;100.00;100785.11;1717477;81;21674;-88
2021/11/03 02:48:45;;;;;;;33.38;20.48;;;;;;;14.22;100.00;100795.43;1708870;82;21229;-88
2021/11/03 02:51:21;;;;;;;31.60;19.70;;;;;;;14.21;100.00;100804.93;1750955;81;21178;-80
2021/11/03 02:54:01;;;;;;;31.93;19.37;;;;;;;14.18;100.00;100816.64;1752698;80;21241;-85
2021/11/03 02:56:44;;;;;;;35.48;19.48;;;;;;;14.15;100.00;100822.23;1716948;81;21335;-78
2021/11/03 02:59:18;;;;;;;;;;;;;;;14.13;100.00;100831.43;1729956;81;21322;-81
2021/11/03 03:01:56;;;;;;;;;;;;;;;14.11;100.00;100834.25;1716666;78;20173;-80
2021/11/03 03:04:36;;;;;;;44.33;26.62;;;;;;;14.07;100.00;100831.19;1755109;80;20232;-73
2021/11/03 03:07:09;;;;;;;38.58;23.90;;;;;;;14.02;100.00;100828.39;1723927;81;21375;-73
2021/11/03 03:09:42;;;;;;;42.40;25.27;;;;;;;14.02;100.00;100827.54;1724804;80;21260;-78
2021/11/03 03:12:18;;;;;;;40.43;22.65;;;;;;;13.99;100.00;100828.11;1761857;80;21335;-80
2021/11/03 03:14:52;;;;;;;40.70;24.35;;;;;;;13.97;100.00;100842.34;1746719;80;21647;-77
2021/11/03 03:17:25;;;;;;;45.43;28.12;;;;;;;13.93;100.00;100838.42;1733145;80;21217;-79
2021/11/03 03:20:02;;;;;;;46.95;25.62;;;;;;;13.91;100.00;100835.09;1722771;80;21258;-81
2021/11/03 03:22:35;;;;;;;42.27;25.65;;;;;;;13.89;100.00;100834.53;1753974;79;21331;-75
2021/11/03 03:25:08;;;;;;;52.98;28.67;;;;;;;13.86;100.00;100839.27;1794403;78;21359;-79
2021/11/03 03:27:41;;;;;;;47.80;26.75;;;;;;;13.84;100.00;100838.72;1785758;79;21873;-79
2021/11/03 03:30:15;;;;;;;45.65;28.52;;;;;;;13.82;100.00;100840.92;1785030;79;21707;-78
2021/11/03 03:32:49;;;;;;;52.85;29.55;;;;;;;13.75;100.00;100844.55;1792669;77;21423;-79
2021/11/03 03:35:22;;;;;;;48.02;27.02;;;;;;;13.73;100.00;100845.40;1788256;78;21723;-77
2021/11/03 03:37:54;;;;;;;51.37;28.50;;;;;;;13.74;100.00;100852.65;1788962;77;21363;-76
2021/11/03 03:40:27;;;;;;;;;;;;;;;13.75;100.00;100851.53;1809692;77;22999;-79
2021/11/03 03:43:00;;;;;;;57.60;33.20;;;;;;;13.74;100.00;100855.44;1799605;79;20229;-79
2021/11/03 03:45:33;;;;;;;54.83;31.33;;;;;;;13.70;100.00;100869.66;1784496;79;21321;-78
2021/11/03 03:48:06;;;;;;;50.60;28.98;;;;;;;13.70;100.00;100869.66;1779344;77;21332;-77
2021/11/03 03:50:38;;;;;;;57.27;33.20;;;;;;;13.69;100.00;100873.57;1802604;77;21848;-77
2021/11/03 03:53:12;;;;;;;57.53;33.28;;;;;;;13.68;100.00;100871.08;1817593;77;21331;-77
2021/11/03 03:55:44;;;;;;;56.73;32.60;;;;;;;13.66;100.00;100865.77;1771063;78;23322;-76
2021/11/03 03:58:19;;;;;;;59.25;32.45;;;;;;;13.59;99.82;100879.69;1774599;79;21281;-76
2021/11/03 04:00:53;;;;;;;54.90;32.30;;;;;;;13.54;99.92;100873.55;1786232;79;21175;-77
2021/11/03 04:03:25;;;;;;;61.20;35.65;;;;;;;13.54;99.92;100873.55;1767815;79;21283;-76
2021/11/03 04:05:59;;;;;;;61.07;35.77;;;;;;;13.53;99.78;100887.23;1724458;80;21425;-75
2021/11/03 04:08:32;;;;;;;67.75;37.05;;;;;;;13.54;99.84;100882.47;1751092;80;21363;-76
2021/11/03 04:11:05;;;;;;;59.00;35.13;;;;;;;13.52;99.74;100885.52;1747549;80;21205;-80
2021/11/03 04:13:39;;;;;;;54.05;33.58;;;;;;;13.51;99.72;100878.27;1734245;80;21933;-80
2021/11/03 04:16:16;;;;;;;61.02;34.45;;;;;;;13.52;99.77;100874.36;1766334;79;21386;-75
2021/11/03 04:18:48;;;;;;;55.95;32.67;;;;;;;13.55;99.43;100874.37;1765693;79;21341;-77
2021/11/03 04:21:21;;;;;;;60.80;36.60;;;;;;;13.55;99.29;100880.80;1779380;78;21261;-77
2021/11/03 04:23:55;;;;;;;59.18;33.55;;;;;;;13.52;98.99;100881.91;1762580;79;21837;-75
2021/11/03 04:26:35;;;;;;;59.67;33.35;;;;;;;13.45;98.32;100890.53;1773297;79;21332;-76
2021/11/03 04:29:09;;;;;;;65.00;35.40;;;;;;;13.45;98.32;100890.53;1750656;79;21831;-78
2021/11/03 04:31:42;;;;;;;72.78;37.20;;;;;;;13.40;98.09;100900.30;1771020;79;21238;-74
2021/11/03 04:34:14;;;;;;;71.20;38.73;;;;;;;13.39;97.95;100894.98;1720013;80;21457;-80
2021/11/03 04:36:47;;;;;;;69.72;38.65;;;;;;;13.38;97.79;100902.51;1778081;78;21411;-78
2021/11/03 04:39:20;;;;;;;68.95;35.17;;;;;;;13.36;97.67;100910.32;1735341;81;21209;-74
2021/11/03 04:41:53;;;;;;;71.20;37.80;;;;;;;13.38;97.53;100905.30;1785280;78;21178;-78
2021/11/03 04:44:26;;;;;;;63.68;37.05;;;;;;;13.33;97.17;100905.27;1777575;78;21311;-75
2021/11/03 04:46:59;;;;;;;59.27;33.00;;;;;;;13.26;97.09;100908.05;1772746;78;21169;-77
2021/11/03 04:49:33;;;;;;;58.78;33.18;;;;;;;13.19;97.11;100909.69;1784368;78;21407;-78
2021/11/03 04:52:06;;;;;;;58.45;34.90;;;;;;;13.15;97.17;100906.33;1745264;80;21186;-77
2021/11/03 04:54:38;;;;;;;60.83;34.98;;;;;;;13.11;97.28;100905.19;1718276;80;21336;-78
2021/11/03 04:57:18;;;;;;;62.93;37.13;;;;;;;13.13;97.47;100919.14;1727913;81;21225;-79
2021/11/03 04:59:51;;;;;;;71.42;38.58;;;;;;;13.07;97.22;100916.62;1715219;82;21703;-76
2021/11/03 05:02:25;;;;;;;54.65;32.42;;;;;;;13.00;97.21;100915.45;1765256;79;21163;-78
2021/11/03 05:04:58;;;;;;;57.55;33.25;;;;;;;12.97;97.26;100921.55;1789158;79;21222;-75
2021/11/03 05:07:31;;;;;;;59.20;33.92;;;;;;;12.94;97.33;100925.41;1777532;78;21209;-72
2021/11/03 05:10:04;;;;;;;60.60;36.63;;;;;;;12.89;97.47;100937.38;1770784;79;21189;-70
2021/11/03 05:12:37;;;;;;;60.70;36.48;;;;;;;12.86;97.73;100937.08;1765357;78;21708;-72
2021/11/03 05:15:11;;;;;;;59.42;33.25;;;;;;;12.84;97.88;100941.52;1799764;78;21328;-72
2021/11/03 05:17:45;;;;;;;62.27;34.98;;;;;;;12.86;98.23;100952.41;1774308;79;21323;-72
2021/11/03 05:20:20;;;;;;;63.17;35.73;;;;;;;12.87;98.15;100957.72;1763605;78;21296;-77
2021/11/03 05:22:54;;;;;;;62.48;35.50;;;;;;;12.86;98.11;100959.37;1705562;81;21447;-76
2021/11/03 05:25:27;;;;;;;55.17;33.50;;;;;;;12.84;98.00;100968.56;1706418;81;21200;-75
2021/11/03 05:28:00;;;;;;;65.62;35.65;;;;;;;12.82;98.01;100965.19;1721846;80;21324;-74
2021/11/03 05:30:32;;;;;;;67.10;34.63;;;;;;;12.80;98.09;100957.66;1723582;82;21241;-85
2021/11/03 05:33:05;;;;;;;70.50;40.55;;;;;;;12.81;98.28;100965.75;1731169;80;21444;-75
2021/11/03 05:35:39;;;;;;;65.87;39.38;;;;;;;12.86;98.43;100969.98;1719935;81;21804;-72
2021/11/03 05:38:11;;;;;;;60.27;36.37;;;;;;;12.89;98.36;100984.75;1727566;81;21737;-73
2021/11/03 05:40:44;;;;;;;54.77;32.53;;;;;;;12.89;98.18;100998.69;1729624;80;21355;-73
2021/11/03 05:43:17;;;;;;;56.37;32.67;;;;;;;12.92;98.09;100982.84;1723614;80;21443;-78
2021/11/03 05:45:50;;;;;;;65.12;37.17;;;;;;;12.99;97.96;100982.61;1713301;80;21263;-78
2021/11/03 05:48:25;;;;;;;65.08;37.60;;;;;;;13.03;97.70;100987.95;1725674;80;21269;-76
2021/11/03 05:50:59;;;;;;;56.20;34.15;;;;;;;13.06;97.49;100993.82;1707968;81;22033;-75
2021/11/03 05:53:32;;;;;;;54.48;33.15;;;;;;;13.13;97.45;101005.56;1730149;81;21246;-83
2021/11/03 05:56:08;;;;;;;57.03;33.50;;;;;;;13.20;97.23;101009.52;1683603;83;21381;-78
2021/11/03 05:58:46;;;;;;;62.20;37.65;;;;;;;13.24;96.53;101019.86;1747547;80;21206;-89
2021/11/03 06:01:19;;;;;;;55.58;34.58;;;;;;;13.24;96.53;101019.86;1739785;80;21349;-77
2021/11/03 06:03:54;;;;;;;55.90;32.50;;;;;;;13.29;95.98;101032.98;1757422;80;21336;-75
2021/11/03 06:06:27;;;;;;;60.35;37.48;;;;;;;13.28;95.50;101031.31;1774959;79;21308;-91
2021/11/03 06:08:59;;;;;;;64.53;38.30;;;;;;;13.24;94.69;101047.75;1784399;79;21332;-77
2021/11/03 06:11:34;;;;;;;63.28;35.13;;;;;;;13.19;93.98;101057.47;1785712;79;21433;-90
2021/11/03 06:14:07;;;;;;;56.10;34.80;;;;;;;13.19;93.98;101057.47;1783746;78;21389;-85
2021/11/03 06:16:40;;;;;;;53.50;34.85;;;;;;;13.07;93.69;101055.43;1776731;79;21210;-80
2021/11/03 06:19:13;;;;;;;57.67;35.10;;;;;;;12.95;92.79;101065.94;1745875;81;21823;-91
2021/11/03 06:21:45;;;;;;;60.92;36.08;;;;;;;12.95;92.79;101065.94;1734950;80;21818;-83
2021/11/03 06:24:20;;;;;;;58.42;35.63;;;;;;;12.91;92.75;101071.71;1755897;79;21170;-77
2021/11/03 06:26:55;;;;;;;53.25;34.35;;;;;;;12.92;92.60;101075.35;1770608;80;21240;-77
2021/11/03 06:29:27;;;;;;;60.48;35.33;;;;;;;12.93;92.40;101077.88;1772544;80;21468;-79
2021/11/03 06:32:00;;;;;;;66.00;38.53;;;;;;;12.94;92.37;101076.77;1746301;80;21339;-77
2021/11/03 06:34:32;;;;;;;65.80;38.78;;;;;;;12.95;92.09;101082.66;1730910;80;21305;-85
2021/11/03 06:37:06;;;;;;;59.35;36.68;;;;;;;12.91;91.91;101087.04;1780469;79;21368;-76
2021/11/03 06:39:38;;;;;;;62.73;38.55;;;;;;;12.93;92.07;101096.00;1748651;81;21328;-88
2021/11/03 06:42:10;;;;;;;59.13;36.95;;;;;;;12.94;91.75;101093.49;1780243;78;21756;-78
2021/11/03 06:44:45;;;;;;;68.85;38.65;;;;;;;12.94;91.62;101096.81;1749530;81;21352;-82
2021/11/03 06:47:20;;;;;;;65.25;39.33;;;;;;;12.93;91.43;101100.72;1749287;81;21190;-79
2021/11/03 06:49:56;;;;;;;58.63;35.28;;;;;;;12.91;91.28;101109.91;1718086;81;21825;-84
2021/11/03 06:52:30;;;;;;;62.65;37.78;;;;;;;12.90;91.18;101116.59;1753598;79;21193;-87
2021/11/03 06:55:06;;;;;;;61.55;36.90;;;;;;;12.87;90.95;101116.56;1758693;80;21348;-78
2021/11/03 06:57:39;;;;;;;63.02;40.23;;;;;;;12.86;90.85;101119.61;1704603;82;21946;-87
2021/11/03 07:00:15;;;;;;;65.30;39.92;;;;;;;12.88;90.95;101118.78;1692628;82;21340;-76
2021/11/03 07:02:48;;;;;;;62.70;38.75;;;;;;;12.89;91.08;101119.92;1714117;82;21371;-80
2021/11/03 07:05:21;;;;;;;65.57;37.15;;;;;;;12.98;91.30;101122.56;1710756;82;21145;-75
2021/11/03 07:07:56;;;;;;;65.15;39.05;;;;;;;13.05;91.05;101120.38;1747013;80;21838;-77
2021/11/03 07:10:33;;;;;;;62.43;38.48;;;;;;;13.16;90.80;101122.15;1722270;82;21920;-80
2021/11/03 07:13:06;;;;;;;65.60;41.13;;;;;;;13.25;90.58;101133.62;1745803;80;21325;-77
2021/11/03 07:15:39;;;;;;;64.58;40.03;;;;;;;13.36;90.37;101133.45;1743626;81;21727;-77
2021/11/03 07:18:12;;;;;;;61.58;38.00;;;;;;;13.49;90.25;101141.34;1744037;79;21301;-80
2021/11/03 07:20:51;;;;;;;71.20;36.13;;;;;;;13.58;89.81;101138.90;1758472;80;21428;-74
2021/11/03 07:23:24;;;;;;;59.75;36.03;;;;;;;13.64;89.43;101147.02;1707856;82;21263;-81
2021/11/03 07:25:57;;;;;;;60.08;35.78;;;;;;;13.72;89.31;101143.73;1722699;82;21296;-82
2021/11/03 07:28:29;;;;;;;58.58;38.50;;;;;;;13.86;88.90;101148.26;1765325;78;22237;-85
2021/11/03 07:31:02;;;;;;;57.03;36.38;;;;;;;13.95;88.62;101138.27;1769880;80;21432;-81
2021/11/03 07:33:34;;;;;;;54.15;34.83;;;;;;;14.01;88.13;101148.35;1731093;82;21179;-88
2021/11/03 07:36:09;;;;;;;55.05;34.92;;;;;;;14.06;87.71;101151.17;1779436;79;21285;-85
2021/11/03 07:38:42;;;;;;;54.77;34.33;;;;;;;14.17;87.45;101150.11;1785299;79;21308;-83
2021/11/03 07:41:16;;;;;;;62.13;36.23;;;;;;;14.23;86.86;101149.05;1781012;79;21229;-76
2021/11/03 07:43:50;;;;;;;59.63;37.63;;;;;;;14.25;86.58;101144.84;1715802;82;21808;-81
2021/11/03 07:46:25;;;;;;;56.77;33.92;;;;;;;14.27;86.04;101135.66;1785931;79;21344;-87
2021/11/03 07:48:57;;;;;;;56.05;35.10;;;;;;;14.31;85.60;101129.78;1797075;79;21372;-83
2021/11/03 07:51:30;;;;;;;58.87;36.03;;;;;;;14.34;85.32;101128.39;1792011;79;21309;-87
2021/11/03 07:54:04;;;;;;;56.50;34.70;;;;;;;14.38;85.02;101133.19;1796615;79;21625;-85
2021/11/03 07:56:41;;;;;;;54.80;33.30;;;;;;;14.40;84.63;101140.72;1796447;79;21748;-80
2021/11/03 07:59:14;;;;;;;52.70;32.23;;;;;;;14.44;84.00;101132.08;1724646;82;21199;-81
2021/11/03 08:01:48;;;;;;;58.13;35.15;;;;;;;14.50;83.80;101137.97;1737569;82;21414;-87
2021/11/03 08:04:21;;;;;;;57.47;34.00;;;;;;;14.55;83.71;101141.33;1729151;82;21341;-82
2021/11/03 08:06:56;;;;;;;56.63;35.88;;;;;;;14.56;83.16;101134.63;1751296;81;22552;-86
2021/11/03 08:09:31;;;;;;;54.58;32.17;;;;;;;14.57;82.86;101131.55;1720085;82;21194;-78
2021/11/03 08:12:16;;;;;;;50.90;31.65;;;;;;;14.63;82.92;101131.00;1745665;81;21266;-96
2021/11/03 08:15:02;;;;;;;52.48;31.40;;;;;;;14.65;82.68;101143.58;1746726;81;21172;-90
2021/11/03 08:17:50;;;;;;;53.58;31.52;;;;;;;14.66;82.31;101143.86;1693237;82;21215;-94
2021/11/03 08:20:37;;;;;;;51.68;31.45;;;;;;;14.67;82.38;101144.13;1737319;80;21215;-85
2021/11/03 08:23:12;;;;;;;60.75;33.98;;;;;;;14.70;82.22;101147.79;1738390;82;21254;-88
2021/11/03 08:25:50;;;;;;;;;;;;;;;14.77;81.76;101148.36;1772211;78;21278;-84
2021/11/03 08:28:37;;;;;;;63.65;34.35;;;;;;;14.87;81.57;101157.32;1727004;81;20286;-92
2021/11/03 08:31:09;;;;;;;53.98;32.50;;;;;;;14.94;81.24;101167.12;1728258;82;21354;-80
2021/11/03 08:33:49;;;;;;;52.70;32.98;;;;;;;15.04;80.92;101170.49;1726112;82;21245;-86
2021/11/03 08:36:23;;;;;;;44.93;28.02;;;;;;;15.09;80.67;101181.69;1735424;82;21239;-85
2021/11/03 08:38:58;;;;;;;61.85;31.70;;;;;;;15.12;80.37;101175.52;1731102;81;21203;-76
2021/11/03 08:41:31;;;;;;;52.93;31.93;;;;;;;15.16;80.43;101184.47;1771839;79;21205;-74
2021/11/03 08:44:04;;;;;;;52.88;31.42;;;;;;;15.21;80.25;101183.08;1801214;79;21226;-76
2021/11/03 08:46:38;;;;;;;46.92;30.70;;;;;;;15.26;80.02;101183.09;1718647;81;21350;-77
2021/11/03 08:49:10;;;;;;;47.45;30.62;;;;;;;15.29;79.83;101184.49;1736512;81;21353;-82
2021/11/03 08:51:44;;;;;;;47.85;28.17;;;;;;;15.34;79.65;101177.53;1719811;80;21168;-72
2021/11/03 08:54:19;;;;;;;41.80;28.65;;;;;;;15.41;79.57;101177.51;1728589;82;21299;-80
2021/11/03 08:56:55;;;;;;;43.75;28.32;;;;;;;15.45;79.21;101191.23;1705235;83;21376;-74
2021/11/03 08:59:29;;;;;;;46.00;29.02;;;;;;;15.48;78.87;101199.09;1706204;83;21203;-76
2021/11/03 09:02:03;;;;;;;46.90;26.90;;;;;;;15.51;78.76;101200.48;1717884;83;21460;-77
2021/11/03 09:04:52;;;;;;;44.08;26.02;;;;;;;15.53;78.86;101204.66;1698230;83;21218;-77
2021/11/03 09:07:24;;;;;;;45.15;27.52;;;;;;;15.58;78.83;101208.86;1691525;83;21341;-83
2021/11/03 09:09:57;;;;;;;47.93;28.95;;;;;;;15.62;78.50;101197.94;1754089;80;21423;-93
2021/11/03 09:12:31;;;;;;;49.48;28.00;;;;;;;15.69;77.62;101206.88;1756992;80;21348;-77
2021/11/03 09:15:09;;;;;;;41.55;26.97;;;;;;;15.76;77.24;101213.89;1754478;80;21332;-87
2021/11/03 09:17:41;;;;;;;49.15;32.05;;;;;;;15.80;76.60;101209.41;1764651;80;21373;-76
2021/11/03 09:20:15;;;;;;;70.47;29.75;;;;;;;15.82;76.35;101208.55;1740677;79;21202;-91
2021/11/03 09:22:48;;;;;;;44.90;27.30;;;;;;;15.86;76.17;101217.23;1732752;80;21355;-88
2021/11/03 09:25:22;;;;;;;42.50;27.85;;;;;;;15.88;76.65;101217.23;1683746;83;21263;-82
2021/11/03 09:27:55;;;;;;;46.13;27.67;;;;;;;15.93;76.98;101220.02;1710333;82;21285;-76
2021/11/03 09:30:29;;;;;;;46.05;26.82;;;;;;;16.02;76.92;101213.29;1715149;81;21180;-76
2021/11/03 09:33:09;;;;;;;43.98;27.60;;;;;;;16.08;77.05;101215.78;1675471;83;21397;-85
2021/11/03 09:35:46;;;;;;;38.90;25.48;;;;;;;16.13;76.73;101218.57;1711649;81;21937;-82
2021/11/03 09:38:25;;;;;;;42.78;25.72;;;;;;;16.16;77.09;101230.63;1738631;80;21396;-88
2021/11/03 09:41:21;;;;;;;45.67;25.10;;;;;;;16.20;77.82;101232.57;1733596;80;21420;-82
2021/11/03 09:44:19;;;;;;;55.30;28.85;;;;;;;16.24;77.50;101222.48;1732472;80;21372;-83
2021/11/03 09:47:02;;;;;;;40.85;25.80;;;;;;;16.30;76.42;101216.28;1710731;81;21418;-82
2021/11/03 09:49:48;;;;;;;43.65;27.00;;;;;;;16.38;77.23;101224.13;1715958;81;21346;-79
2021/11/03 09:52:42;;;;;;;40.23;25.77;;;;;;;16.45;78.54;101224.69;1677578;82;21900;-87
2021/11/03 09:55:27;;;;;;;39.27;25.77;;;;;;;16.50;78.37;101224.09;1741225;80;21337;-88
2021/11/03 09:58:29;;;;;;;41.77;26.82;;;;;;;16.60;78.84;101234.42;1724668;79;21203;-89
2021/11/03 10:01:23;;;;;;;43.50;27.65;;;;;;;16.66;78.53;101231.33;1703173;80;21886;-89
2021/11/03 10:04:16;;;;;;;42.00;25.02;;;;;;;16.75;79.56;101233.80;1722532;80;22582;-83
2021/11/03 10:07:02;;;;;;;42.35;26.37;;;;;;;16.78;76.53;101234.63;1655341;81;21743;-78
2021/11/03 10:09:40;;;;;;;38.60;24.23;;;;;;;16.78;75.34;101239.39;1732668;80;21344;-79
2021/11/03 10:12:15;;;;;;;33.65;22.62;;;;;;;16.79;75.55;101234.91;1726805;80;21318;-87
2021/11/03 10:14:49;;;;;;;36.70;21.93;;;;;;;16.82;76.01;101231.51;1723172;80;21276;-79
2021/11/03 10:17:31;;;;;;;37.17;22.55;;;;;;;16.82;74.57;101230.69;1745162;80;21195;-80
2021/11/03 10:20:13;;;;;;;42.60;23.85;;;;;;;16.83;73.90;101233.77;1726391;80;21415;-85
2021/11/03 10:22:47;;;;;;;39.80;24.30;;;;;;;16.86;72.74;101237.37;1698412;80;21277;-89
2021/11/03 10:25:26;;;;;;;;;;;;;;;16.87;71.94;101233.44;1737448;80;21399;-79
2021/11/03 10:28:00;;;;;;;34.38;21.20;;;;;;;16.88;71.65;101235.14;1733160;80;20250;-91
2021/11/03 10:30:39;;;;;;;38.00;23.62;;;;;;;16.88;72.24;101233.73;1737668;80;21361;-81
2021/11/03 10:33:37;;;;;;;39.70;22.87;;;;;;;16.89;71.87;101238.22;1728627;81;21921;-78
2021/11/03 10:36:20;;;;;;;39.25;21.65;;;;;;;16.89;71.96;101241.02;1726901;80;21472;-83
2021/11/03 10:39:02;;;;;;;40.28;23.52;;;;;;;16.94;73.89;101239.59;1727244;82;21337;-91
2021/11/03 10:41:36;;;;;;;52.67;23.45;;;;;;;16.96;72.89;101240.95;1748479;79;21715;-78
2021/11/03 10:44:13;;;;;;;34.18;22.15;;;;;;;17.01;73.65;101247.13;1746062;79;21363;-90
2021/11/03 10:46:56;;;;;;;33.95;21.42;;;;;;;17.05;73.32;101245.40;1732581;80;21440;-82
2021/11/03 10:49:34;;;;;;;30.88;20.40;;;;;;;17.07;72.25;101240.36;1728607;81;21198;-79
2021/11/03 10:52:23;;;;;;;28.57;19.85;;;;;;;17.10;71.11;101243.42;1710225;82;21199;-78
2021/11/03 10:54:59;;;;;;;28.07;19.73;;;;;;;17.10;68.47;101247.63;1745219;80;21752;-76
2021/11/03 10:57:44;;;;;;;27.75;19.67;;;;;;;17.07;68.46;101243.16;1750273;80;21312;-83
2021/11/03 11:00:38;;;;;;;25.25;17.62;;;;;;;17.08;69.42;101247.64;1732522;80;21428;-80
2021/11/03 11:03:18;;;;;;;35.43;20.00;;;;;;;17.07;69.32;101255.80;1745721;80;21289;-78
2021/11/03 11:05:56;;;;;;;28.32;19.23;;;;;;;17.07;69.05;101258.60;1752689;80;21178;-83
2021/11/03 11:08:30;;;;;;;26.68;19.12;;;;;;;17.07;68.44;101255.80;1752016;80;21368;-76
2021/11/03 11:11:10;;;;;;;30.30;19.17;;;;;;;17.09;68.62;101254.93;1734133;80;21910;-78
2021/11/03 11:13:58;;;;;;;30.75;20.85;;;;;;;17.09;68.58;101265.61;1733917;80;21395;-81
2021/11/03 11:16:49;;;;;;;34.33;21.42;;;;;;;17.08;68.87;101261.09;1724244;81;21235;-80
2021/11/03 11:20:02;;;;;;;30.85;20.85;;;;;;;17.08;68.60;101265.30;1711539;80;21364;-79
2021/11/03 11:22:55;;;;;;;31.75;22.17;;;;;;;17.08;68.39;101279.91;1688447;82;21423;-76
2021/11/03 11:25:44;;;;;;;38.23;20.80;;;;;;;17.04;68.54;101285.27;1721820;81;21748;-81
2021/11/03 11:28:46;;;;;;;33.13;20.72;;;;;;;17.01;68.42;101288.64;1714147;81;21549;-80
2021/11/03 11:31:56;;;;;;;31.12;20.65;;;;;;;16.98;68.23;101286.42;1717620;80;21337;-80
2021/11/03 11:34:47;;;;;;;31.95;21.05;;;;;;;16.99;68.62;101285.84;1737138;80;21355;-84
2021/11/03 11:37:39;;;;;;;36.48;22.67;;;;;;;17.02;68.80;101278.27;1747631;80;21353;-88
2021/11/03 11:40:37;;;;;;;36.90;23.55;;;;;;;17.04;68.78;101282.47;1729196;81;21360;-89
2021/11/03 11:43:29;;;;;;;39.88;24.95;;;;;;;17.02;68.85;101280.48;1737338;80;21347;-79
2021/11/03 11:46:06;;;;;;;32.93;22.55;;;;;;;17.03;68.97;101278.53;1729350;80;21308;-86
2021/11/03 11:48:41;;;;;;;37.30;24.52;;;;;;;17.02;68.96;101289.48;1684072;83;21337;-88
2021/11/03 11:51:39;;;;;;;39.75;23.22;;;;;;;16.96;69.41;101290.06;1694018;82;21302;-89